Time;durP1;ratioP1;P1;durP2;ratioP2;P2;SDS_P1;SDS_P2;PMS_P1;PMS_P2;Temp;Humidity;BMP_temperature;BMP_pressure;BME280_temperature;BME280_humidity;BME280_pressure;Samples;Min_cycle;Max_cycle;Signal;HPM_P1;HPM_P2
2021/10/05 00:01:19;;;;;;;;;2.00;1.00;;;;;;;;5077958;27;45350;-76
2021/10/05 00:03:44;;;;;;;;;2.00;0.50;;;;;;;;5077394;27;45370;-75
2021/10/05 00:06:09;;;;;;;;;0.50;0.25;;;;;;;;5081127;27;46253;-77
2021/10/05 00:08:34;;;;;;;;;3.00;2.00;;;;;;;;5076361;27;45451;-77
2021/10/05 00:10:59;;;;;;;;;2.00;2.00;;;;;;;;5082169;27;45623;-76
2021/10/05 00:13:25;;;;;;;;;1.75;1.00;;;;;;;;5080242;27;45530;-77
2021/10/05 00:15:50;;;;;;;;;0.50;0.50;;;;;;;;5081259;27;46153;-76
2021/10/05 00:18:15;;;;;;;;;1.25;1.25;;;;;;;;5080751;27;45545;-75
2021/10/05 00:20:40;;;;;;;;;2.00;2.00;;;;;;;;5078330;27;45489;-75
2021/10/05 00:23:05;;;;;;;;;1.75;1.75;;;;;;;;5080347;27;45449;-74
2021/10/05 00:25:31;;;;;;;;;1.50;1.50;;;;;;;;5082041;27;46167;-77
2021/10/05 00:27:56;;;;;;;;;1.00;1.00;;;;;;;;5080830;27;45426;-76
2021/10/05 00:30:21;;;;;;;;;2.00;1.50;;;;;;;;5081279;27;45326;-77
2021/10/05 00:32:46;;;;;;;;;0.50;0.50;;;;;;;;5078846;27;45657;-77
2021/10/05 00:35:11;;;;;;;;;2.25;1.25;;;;;;;;5078277;27;46076;-77
2021/10/05 00:37:37;;;;;;;;;3.00;1.25;;;;;;;;5082678;27;45369;-77
2021/10/05 00:40:03;;;;;;;;;2.50;1.00;;;;;;;;5080818;27;45397;-77
2021/10/05 00:42:28;;;;;;;;;1.25;1.25;;;;;;;;5080597;27;45896;-74
2021/10/05 00:44:53;;;;;;;;;1.50;1.50;;;;;;;;5079844;27;45502;-77
2021/10/05 00:47:18;;;;;;;;;2.50;2.50;;;;;;;;5076775;27;45547;-77
2021/10/05 00:49:45;;;;;;;;;1.00;1.00;;;;;;;;5080837;27;45559;-74
2021/10/05 00:52:11;;;;;;;;;1.50;1.50;;;;;;;;5078782;27;45383;-74
2021/10/05 00:54:37;;;;;;;;;3.75;1.00;;;;;;;;5080252;27;45403;-75
2021/10/05 00:57:03;;;;;;;;;1.00;1.00;;;;;;;;5080318;27;45401;-75
2021/10/05 00:59:30;;;;;;;;;1.00;1.00;;;;;;;;5076195;28;45418;-75
2021/10/05 01:01:55;;;;;;;;;2.75;0.75;;;;;;;;5089807;27;45373;-75
2021/10/05 01:04:21;;;;;;;;;0.00;0.00;;;;;;;;5080314;27;45532;-77
2021/10/05 01:06:47;;;;;;;;;2.00;2.00;;;;;;;;5080032;27;45402;-75
2021/10/05 01:09:12;;;;;;;;;1.00;1.00;;;;;;;;5080508;27;45402;-74
2021/10/05 01:11:38;;;;;;;;;0.50;0.50;;;;;;;;5077112;27;45478;-77
2021/10/05 01:14:03;;;;;;;;;1.00;1.00;;;;;;;;5080378;27;47420;-77
2021/10/05 01:16:28;;;;;;;;;4.75;2.00;;;;;;;;5080201;27;45403;-74
2021/10/05 01:18:53;;;;;;;;;1.00;1.00;;;;;;;;5080037;27;45585;-75
2021/10/05 01:21:18;;;;;;;;;2.75;1.00;;;;;;;;5080329;27;45437;-75
2021/10/05 01:23:46;;;;;;;;;0.25;0.25;;;;;;;;5077926;27;46108;-77
2021/10/05 01:26:11;;;;;;;;;1.00;1.00;;;;;;;;5078458;27;45558;-76
2021/10/05 01:28:36;;;;;;;;;2.75;1.00;;;;;;;;5079591;27;45465;-76
2021/10/05 01:31:01;;;;;;;;;1.75;1.75;;;;;;;;5078323;27;45793;-75
2021/10/05 01:33:28;;;;;;;;;3.00;2.00;;;;;;;;5080147;27;45971;-76
2021/10/05 01:35:53;;;;;;;;;1.00;1.00;;;;;;;;5078895;27;45453;-75
2021/10/05 01:38:19;;;;;;;;;0.00;0.00;;;;;;;;5076263;27;45588;-76
2021/10/05 01:40:45;;;;;;;;;1.00;1.00;;;;;;;;5082022;27;45460;-76
2021/10/05 01:43:10;;;;;;;;;2.00;1.50;;;;;;;;5079736;27;46423;-75
2021/10/05 01:45:37;;;;;;;;;0.00;0.00;;;;;;;;5079506;27;45471;-76
2021/10/05 01:48:03;;;;;;;;;2.00;2.00;;;;;;;;5079756;27;45314;-76
2021/10/05 01:50:29;;;;;;;;;1.00;1.00;;;;;;;;5075301;27;45362;-76
2021/10/05 01:52:54;;;;;;;;;3.00;0.00;;;;;;;;5081718;27;46204;-76
2021/10/05 01:55:21;;;;;;;;;1.00;1.00;;;;;;;;5079706;27;45317;-76
2021/10/05 01:57:46;;;;;;;;;2.75;2.00;;;;;;;;5079778;27;45449;-76
2021/10/05 02:00:11;;;;;;;;;2.00;2.00;;;;;;;;5079352;27;45283;-76
2021/10/05 02:02:37;;;;;;;;;1.00;0.00;;;;;;;;5076267;27;45914;-76
2021/10/05 02:05:02;;;;;;;;;1.50;1.25;;;;;;;;5079692;27;45288;-76
2021/10/05 02:07:27;;;;;;;;;2.00;0.75;;;;;;;;5078890;27;45499;-76
2021/10/05 02:09:53;;;;;;;;;1.00;1.00;;;;;;;;5077971;27;45430;-75
2021/10/05 02:12:18;;;;;;;;;2.25;0.25;;;;;;;;5079497;27;45537;-77
2021/10/05 02:14:45;;;;;;;;;1.00;1.00;;;;;;;;5076648;27;45456;-75
2021/10/05 02:17:11;;;;;;;;;1.25;1.00;;;;;;;;5077298;27;45358;-75
2021/10/05 02:19:37;;;;;;;;;2.75;0.50;;;;;;;;5080837;27;45390;-74
2021/10/05 02:22:02;;;;;;;;;0.25;0.25;;;;;;;;5078862;27;47032;-74
2021/10/05 02:26:54;;;;;;;;;3.00;2.00;;;;;;;;5077457;27;45477;-76
2021/10/05 02:29:20;;;;;;;;;1.00;1.00;;;;;;;;5075232;27;45774;-74
2021/10/05 02:31:45;;;;;;;;;0.25;0.25;;;;;;;;5080877;27;46039;-77
2021/10/05 02:34:10;;;;;;;;;1.00;1.00;;;;;;;;5079056;27;45555;-74
2021/10/05 02:36:36;;;;;;;;;1.25;1.25;;;;;;;;5078884;27;45562;-75
2021/10/05 02:39:02;;;;;;;;;1.50;1.00;;;;;;;;5078943;27;45424;-75
2021/10/05 02:41:27;;;;;;;;;2.00;2.00;;;;;;;;5074526;27;45356;-76
2021/10/05 02:43:52;;;;;;;;;1.00;1.00;;;;;;;;5080672;27;45444;-75
2021/10/05 02:46:17;;;;;;;;;0.00;0.00;;;;;;;;5077597;27;45445;-76
2021/10/05 02:48:42;;;;;;;;;2.00;1.00;;;;;;;;5077056;27;45482;-76
2021/10/05 02:51:08;;;;;;;;;1.50;0.50;;;;;;;;5078449;27;45366;-76
2021/10/05 02:53:33;;;;;;;;;1.50;1.25;;;;;;;;5074858;27;45420;-75
2021/10/05 02:55:58;;;;;;;;;2.00;2.00;;;;;;;;5083416;27;45477;-76
2021/10/05 02:58:23;;;;;;;;;0.00;0.00;;;;;;;;5078659;27;45566;-77
2021/10/05 03:00:49;;;;;;;;;2.50;1.00;;;;;;;;5077623;27;45427;-79
2021/10/05 03:03:14;;;;;;;;;3.50;0.00;;;;;;;;5078625;27;45523;-76
2021/10/05 03:05:39;;;;;;;;;2.00;2.00;;;;;;;;5076057;27;45415;-77
2021/10/05 03:08:05;;;;;;;;;0.00;0.00;;;;;;;;5077833;27;45490;-77
2021/10/05 03:10:31;;;;;;;;;3.50;2.00;;;;;;;;5079393;27;47001;-77
2021/10/05 03:12:56;;;;;;;;;1.25;0.25;;;;;;;;5077839;27;45453;-77
2021/10/05 03:15:21;;;;;;;;;1.50;1.50;;;;;;;;5078039;27;45469;-76
2021/10/05 03:17:46;;;;;;;;;0.50;0.50;;;;;;;;5076276;27;45272;-77
2021/10/05 03:20:11;;;;;;;;;1.75;1.00;;;;;;;;5075067;27;45431;-77
2021/10/05 03:22:37;;;;;;;;;3.50;2.00;;;;;;;;5079751;27;45498;-75
2021/10/05 03:25:03;;;;;;;;;1.00;1.00;;;;;;;;5075953;27;46386;-75
2021/10/05 03:27:28;;;;;;;;;4.50;2.50;;;;;;;;5075975;27;45355;-75
2021/10/05 03:29:54;;;;;;;;;1.75;1.00;;;;;;;;5076832;27;46118;-75
2021/10/05 03:32:19;;;;;;;;;1.00;1.00;;;;;;;;5074353;27;45458;-76
2021/10/05 03:34:44;;;;;;;;;3.25;0.25;;;;;;;;5080017;27;45462;-76
2021/10/05 03:37:09;;;;;;;;;0.50;0.50;;;;;;;;5077958;27;45488;-76
2021/10/05 03:39:35;;;;;;;;;1.00;1.00;;;;;;;;5077561;27;46351;-76
2021/10/05 03:42:00;;;;;;;;;1.75;1.00;;;;;;;;5077537;27;45508;-76
2021/10/05 03:44:25;;;;;;;;;1.00;1.00;;;;;;;;5073351;28;45275;-74
2021/10/05 03:46:51;;;;;;;;;0.00;0.00;;;;;;;;5079583;27;45469;-77
2021/10/05 03:49:16;;;;;;;;;3.00;2.00;;;;;;;;5077328;27;46138;-77
2021/10/05 03:51:45;;;;;;;;;1.50;1.50;;;;;;;;5076229;27;45487;-77
2021/10/05 03:54:10;;;;;;;;;5.25;2.75;;;;;;;;5077168;27;45512;-76
2021/10/05 03:56:35;;;;;;;;;0.50;0.50;;;;;;;;5074325;27;45355;-77
2021/10/05 03:59:00;;;;;;;;;1.75;1.00;;;;;;;;5077605;27;46325;-75
2021/10/05 04:01:26;;;;;;;;;1.50;1.00;;;;;;;;5078292;27;45553;-76
2021/10/05 04:03:51;;;;;;;;;3.25;1.75;;;;;;;;5076381;27;45450;-75
2021/10/05 04:06:16;;;;;;;;;1.00;1.00;;;;;;;;5076159;27;45755;-77
2021/10/05 04:08:41;;;;;;;;;2.00;2.00;;;;;;;;5074457;27;46331;-76
2021/10/05 04:11:08;;;;;;;;;2.50;2.50;;;;;;;;5075839;27;45346;-76
2021/10/05 04:13:33;;;;;;;;;2.25;1.50;;;;;;;;5078706;27;45283;-75
2021/10/05 04:15:58;;;;;;;;;3.50;0.75;;;;;;;;5076509;27;45394;-75
2021/10/05 04:18:24;;;;;;;;;1.75;1.50;;;;;;;;5076850;27;46381;-76
2021/10/05 04:20:49;;;;;;;;;3.75;2.75;;;;;;;;5075462;27;45560;-75
2021/10/05 04:23:14;;;;;;;;;4.50;4.25;;;;;;;;5073375;27;45818;-76
2021/10/05 04:25:39;;;;;;;;;10.25;5.25;;;;;;;;5079016;27;45524;-76
2021/10/05 04:28:05;;;;;;;;;5.50;5.25;;;;;;;;5076564;27;46394;-76
2021/10/05 04:30:30;;;;;;;;;6.25;6.00;;;;;;;;5076682;27;45322;-77
2021/10/05 04:32:55;;;;;;;;;12.75;6.25;;;;;;;;5075896;27;45349;-78
2021/10/05 04:35:21;;;;;;;;;5.50;5.50;;;;;;;;5072424;27;45265;-77
2021/10/05 04:37:46;;;;;;;;;7.00;7.00;;;;;;;;5077935;27;46222;-75
2021/10/05 04:40:12;;;;;;;;;4.75;3.00;;;;;;;;5076607;27;45442;-76
2021/10/05 04:42:37;;;;;;;;;7.00;7.00;;;;;;;;5074660;27;45512;-73
2021/10/05 04:45:02;;;;;;;;;5.50;4.50;;;;;;;;5074815;27;45389;-72
2021/10/05 04:47:28;;;;;;;;;3.00;3.00;;;;;;;;5071890;27;46307;-71
2021/10/05 04:49:53;;;;;;;;;2.75;1.50;;;;;;;;5060112;28;45359;-73
2021/10/05 04:52:18;;;;;;;;;4.00;2.00;;;;;;;;5079507;27;45308;-74
2021/10/05 04:54:43;;;;;;;;;3.75;2.25;;;;;;;;5079787;27;45216;-73
2021/10/05 04:57:09;;;;;;;;;3.00;3.00;;;;;;;;5079020;27;45337;-72
2021/10/05 04:59:34;;;;;;;;;3.25;2.00;;;;;;;;5075938;27;45405;-73
2021/10/05 05:01:59;;;;;;;;;2.50;2.50;;;;;;;;5080569;27;45407;-73
2021/10/05 05:04:24;;;;;;;;;2.25;2.00;;;;;;;;5080389;27;45339;-72
2021/10/05 05:06:50;;;;;;;;;1.25;1.25;;;;;;;;5078991;27;46711;-74
2021/10/05 05:09:15;;;;;;;;;1.00;1.00;;;;;;;;5079482;27;45366;-73
2021/10/05 05:11:40;;;;;;;;;1.50;1.00;;;;;;;;5077221;27;45339;-73
2021/10/05 05:14:10;;;;;;;;;1.75;1.50;;;;;;;;5078641;27;45355;-73
2021/10/05 05:16:36;;;;;;;;;1.25;0.00;;;;;;;;5080919;27;45407;-74
2021/10/05 05:19:02;;;;;;;;;1.00;1.00;;;;;;;;5079482;27;45755;-74
2021/10/05 05:21:27;;;;;;;;;3.00;3.00;;;;;;;;5077611;27;45428;-74
2021/10/05 05:23:52;;;;;;;;;1.00;1.00;;;;;;;;5076818;27;45440;-75
2021/10/05 05:26:18;;;;;;;;;1.00;1.00;;;;;;;;5076416;27;45478;-73
2021/10/05 05:28:43;;;;;;;;;7.00;2.00;;;;;;;;5081516;27;45331;-73
2021/10/05 05:31:08;;;;;;;;;1.00;1.00;;;;;;;;5061336;28;45460;-73
2021/10/05 05:33:33;;;;;;;;;2.00;2.00;;;;;;;;5079196;27;45259;-74
2021/10/05 05:35:59;;;;;;;;;4.25;2.00;;;;;;;;5078433;27;46222;-74
2021/10/05 05:38:26;;;;;;;;;1.00;1.00;;;;;;;;5074817;27;45283;-73
2021/10/05 05:40:51;;;;;;;;;2.00;2.00;;;;;;;;5080921;27;45416;-73
2021/10/05 05:43:16;;;;;;;;;2.50;2.00;;;;;;;;5078634;27;45439;-73
2021/10/05 05:45:41;;;;;;;;;0.00;0.00;;;;;;;;5077983;27;46354;-73
2021/10/05 05:48:07;;;;;;;;;1.00;1.00;;;;;;;;5078054;27;45612;-74
2021/10/05 05:50:32;;;;;;;;;1.25;0.00;;;;;;;;5074182;27;45395;-74
2021/10/05 05:52:57;;;;;;;;;2.00;2.00;;;;;;;;5079778;27;45397;-72
2021/10/05 05:55:23;;;;;;;;;1.25;0.25;;;;;;;;5077929;27;45391;-73
2021/10/05 05:57:50;;;;;;;;;5.50;3.50;;;;;;;;5078060;27;45606;-74
2021/10/05 06:00:16;;;;;;;;;4.25;3.00;;;;;;;;5076491;27;45236;-74
2021/10/05 06:02:41;;;;;;;;;2.00;2.00;;;;;;;;5072477;27;45544;-73
2021/10/05 06:05:06;;;;;;;;;3.50;2.50;;;;;;;;5076464;27;46282;-75
2021/10/05 06:07:31;;;;;;;;;4.25;3.00;;;;;;;;5078810;27;45405;-74
2021/10/05 06:09:57;;;;;;;;;2.25;1.25;;;;;;;;5077667;27;45488;-74
2021/10/05 06:12:25;;;;;;;;;3.50;1.75;;;;;;;;5077086;27;45490;-74
2021/10/05 06:14:50;;;;;;;;;3.50;2.00;;;;;;;;5075673;27;45462;-74
2021/10/05 06:17:15;;;;;;;;;4.75;2.00;;;;;;;;5073698;27;45408;-74
2021/10/05 06:19:40;;;;;;;;;3.75;2.25;;;;;;;;5079022;27;45393;-74
2021/10/05 06:22:06;;;;;;;;;3.00;2.00;;;;;;;;5076418;27;45557;-74
2021/10/05 06:24:31;;;;;;;;;2.75;2.00;;;;;;;;5077088;27;45512;-74
2021/10/05 06:26:56;;;;;;;;;1.50;1.50;;;;;;;;5076584;27;45445;-73
2021/10/05 06:29:22;;;;;;;;;2.75;2.00;;;;;;;;5073114;27;45433;-76
2021/10/05 06:31:47;;;;;;;;;1.00;1.00;;;;;;;;5078800;27;45354;-74
2021/10/05 06:34:12;;;;;;;;;1.00;1.00;;;;;;;;5076604;27;46139;-75
2021/10/05 06:36:37;;;;;;;;;4.75;3.50;;;;;;;;5076535;27;45457;-75
2021/10/05 06:39:03;;;;;;;;;5.00;5.00;;;;;;;;5075287;27;45399;-75
2021/10/05 06:41:28;;;;;;;;;7.50;6.75;;;;;;;;5070778;27;45330;-77
2021/10/05 06:43:53;;;;;;;;;7.00;6.00;;;;;;;;5078761;27;45371;-73
2021/10/05 06:46:18;;;;;;;;;1.25;1.25;;;;;;;;5077027;27;45378;-73
2021/10/05 06:48:44;;;;;;;;;3.00;3.00;;;;;;;;5076520;27;45543;-75
2021/10/05 06:51:09;;;;;;;;;10.25;6.75;;;;;;;;5076433;27;45353;-77
2021/10/05 06:53:34;;;;;;;;;10.00;6.25;;;;;;;;5073079;27;45335;-75
2021/10/05 06:55:59;;;;;;;;;7.50;6.50;;;;;;;;5077019;27;45433;-74
2021/10/05 06:58:25;;;;;;;;;5.00;4.50;;;;;;;;5077370;27;45505;-73
2021/10/05 07:00:50;;;;;;;;;5.50;5.50;;;;;;;;5076987;27;45583;-75
2021/10/05 07:03:15;;;;;;;;;6.25;5.25;;;;;;;;5076263;27;46364;-73
2021/10/05 07:05:40;;;;;;;;;5.50;5.50;;;;;;;;5073941;27;45447;-73
2021/10/05 07:08:06;;;;;;;;;7.00;6.75;;;;;;;;5075975;27;45332;-74
2021/10/05 07:10:32;;;;;;;;;5.50;5.50;;;;;;;;5077764;27;45322;-72
2021/10/05 07:12:57;;;;;;;;;6.50;6.00;;;;;;;;5075838;27;46933;-74
2021/10/05 07:15:22;;;;;;;;;5.00;4.50;;;;;;;;5076033;27;45286;-74
2021/10/05 07:17:50;;;;;;;;;8.25;5.50;;;;;;;;5072572;27;45330;-74
2021/10/05 07:20:16;;;;;;;;;6.00;6.00;;;;;;;;5073534;27;45503;-73
2021/10/05 07:22:41;;;;;;;;;4.75;4.75;;;;;;;;5076313;27;47283;-74
2021/10/05 07:25:06;;;;;;;;;7.00;7.00;;;;;;;;5057945;28;45485;-75
2021/10/05 07:27:32;;;;;;;;;9.75;9.00;;;;;;;;5076514;27;45490;-75
2021/10/05 07:29:57;;;;;;;;;5.50;4.50;;;;;;;;5076023;27;45348;-73
2021/10/05 07:32:22;;;;;;;;;9.00;8.50;;;;;;;;5072115;27;49178;-73
2021/10/05 07:34:47;;;;;;;;;6.50;6.50;;;;;;;;5078341;27;45358;-75
2021/10/05 07:37:13;;;;;;;;;6.50;6.00;;;;;;;;5076913;27;45428;-76
2021/10/05 07:39:38;;;;;;;;;8.00;5.25;;;;;;;;5076735;27;45518;-74
2021/10/05 07:42:04;;;;;;;;;9.00;6.75;;;;;;;;5076276;27;46143;-73
2021/10/05 07:44:33;;;;;;;;;5.75;5.75;;;;;;;;5072435;27;45425;-75
2021/10/05 07:46:58;;;;;;;;;6.00;5.00;;;;;;;;5077835;27;45311;-75
2021/10/05 07:49:24;;;;;;;;;9.00;5.25;;;;;;;;5076426;27;45348;-75
2021/10/05 07:51:49;;;;;;;;;7.25;6.25;;;;;;;;5076477;27;46131;-74
2021/10/05 07:54:14;;;;;;;;;6.25;6.25;;;;;;;;5076557;27;45359;-75
2021/10/05 07:56:39;;;;;;;;;7.25;5.25;;;;;;;;5072564;27;45421;-74
2021/10/05 07:59:05;;;;;;;;;5.00;3.50;;;;;;;;5075351;27;45499;-74
2021/10/05 08:01:30;;;;;;;;;5.00;4.00;;;;;;;;5075127;27;45464;-72
2021/10/05 08:03:55;;;;;;;;;5.00;5.00;;;;;;;;5075538;27;45410;-73
2021/10/05 08:06:20;;;;;;;;;4.50;2.25;;;;;;;;5075752;27;45288;-74
2021/10/05 08:08:45;;;;;;;;;2.00;2.00;;;;;;;;5074001;27;45294;-72
2021/10/05 08:11:11;;;;;;;;;4.00;3.00;;;;;;;;5073858;27;46274;-72
2021/10/05 08:13:36;;;;;;;;;4.75;4.75;;;;;;;;5077792;27;45390;-73
2021/10/05 08:16:02;;;;;;;;;4.00;4.00;;;;;;;;5075776;27;45326;-73
2021/10/05 08:18:27;;;;;;;;;4.50;2.50;;;;;;;;5075616;27;45291;-73
2021/10/05 08:20:52;;;;;;;;;4.00;4.00;;;;;;;;5074948;27;46131;-72
2021/10/05 08:23:18;;;;;;;;;3.50;3.50;;;;;;;;5072612;27;45432;-73
2021/10/05 08:25:43;;;;;;;;;2.00;2.00;;;;;;;;5079732;27;45320;-72
2021/10/05 08:28:09;;;;;;;;;2.25;2.25;;;;;;;;5079158;27;45469;-74
2021/10/05 08:30:35;;;;;;;;;4.75;3.75;;;;;;;;5078935;27;46188;-74
2021/10/05 08:33:00;;;;;;;;;3.00;3.00;;;;;;;;5079434;27;45369;-72
2021/10/05 08:35:25;;;;;;;;;3.00;2.00;;;;;;;;5074084;27;45300;-72
2021/10/05 08:37:52;;;;;;;;;2.00;2.00;;;;;;;;5080723;27;45279;-73
2021/10/05 08:40:18;;;;;;;;;1.00;1.00;;;;;;;;5077155;27;46363;-73
2021/10/05 08:42:44;;;;;;;;;3.75;1.00;;;;;;;;5078853;27;45485;-73
2021/10/05 08:45:10;;;;;;;;;5.25;2.50;;;;;;;;5078622;27;45402;-73
2021/10/05 08:47:35;;;;;;;;;0.75;0.75;;;;;;;;5075440;27;45521;-73
2021/10/05 08:50:01;;;;;;;;;2.00;1.00;;;;;;;;5079459;27;46216;-73
2021/10/05 08:52:26;;;;;;;;;2.75;2.75;;;;;;;;5078097;27;45450;-74
2021/10/05 08:54:51;;;;;;;;;5.50;5.50;;;;;;;;5079359;27;45422;-73
2021/10/05 08:57:16;;;;;;;;;1.75;1.25;;;;;;;;5079060;27;45457;-72
2021/10/05 08:59:42;;;;;;;;;1.25;1.25;;;;;;;;5075729;27;46142;-74
2021/10/05 09:02:14;;;;;;;;;1.00;1.00;;;;;;;;5077752;27;45411;-73
2021/10/05 09:04:43;;;;;;;;;3.00;3.00;;;;;;;;5078177;27;45439;-71
2021/10/05 09:07:21;;;;;;;;;1.00;1.00;;;;;;;;5078325;27;45330;-72
2021/10/05 09:09:57;;;;;;;;;0.00;0.00;;;;;;;;5078440;27;46173;-72
2021/10/05 09:12:23;;;;;;;;;2.00;2.00;;;;;;;;5079069;27;45427;-71
2021/10/05 09:14:49;;;;;;;;;1.25;1.25;;;;;;;;5075737;27;45524;-71
2021/10/05 09:17:21;;;;;;;;;1.25;1.00;;;;;;;;5075990;27;45354;-71
2021/10/05 09:19:47;;;;;;;;;1.50;1.50;;;;;;;;5079251;27;45446;-72
2021/10/05 09:22:22;;;;;;;;;0.00;0.00;;;;;;;;5078745;27;45539;-72
2021/10/05 09:24:49;;;;;;;;;1.00;1.00;;;;;;;;5078503;27;45312;-71
2021/10/05 09:27:14;;;;;;;;;0.00;0.00;;;;;;;;5078680;27;45479;-73
2021/10/05 09:29:40;;;;;;;;;1.25;1.25;;;;;;;;5075421;27;45470;-71
2021/10/05 09:32:09;;;;;;;;;2.75;1.50;;;;;;;;5077808;27;45458;-72
2021/10/05 09:34:45;;;;;;;;;1.25;0.00;;;;;;;;5079949;27;45451;-73
2021/10/05 09:37:16;;;;;;;;;0.00;0.00;;;;;;;;5078286;27;45400;-71
2021/10/05 09:39:52;;;;;;;;;1.00;1.00;;;;;;;;5077960;27;46994;-71
2021/10/05 09:42:18;;;;;;;;;0.00;0.00;;;;;;;;5077549;27;45498;-72
2021/10/05 09:44:48;;;;;;;;;2.25;2.25;;;;;;;;5075630;27;45339;-72
2021/10/05 09:47:13;;;;;;;;;0.75;0.75;;;;;;;;5075630;27;45328;-71
2021/10/05 09:49:43;;;;;;;;;3.00;1.50;;;;;;;;5080635;27;45372;-72
2021/10/05 09:52:09;;;;;;;;;2.25;2.00;;;;;;;;5078434;27;45320;-72
2021/10/05 09:54:34;;;;;;;;;2.25;1.00;;;;;;;;5076746;27;45486;-72
2021/10/05 09:57:00;;;;;;;;;1.00;1.00;;;;;;;;5075819;27;45396;-71
2021/10/05 09:59:25;;;;;;;;;2.00;1.00;;;;;;;;5073225;27;45994;-72
2021/10/05 10:01:51;;;;;;;;;2.50;1.25;;;;;;;;5079659;27;45312;-74
2021/10/05 10:04:16;;;;;;;;;1.75;1.00;;;;;;;;5077435;27;45599;-72
2021/10/05 10:06:42;;;;;;;;;1.00;1.00;;;;;;;;5077394;27;45397;-72
2021/10/05 10:09:09;;;;;;;;;3.00;1.00;;;;;;;;5077189;27;45491;-71
2021/10/05 10:11:34;;;;;;;;;5.00;1.00;;;;;;;;5073653;27;45311;-72
2021/10/05 10:14:00;;;;;;;;;0.00;0.00;;;;;;;;5078683;27;45441;-72
2021/10/05 10:16:26;;;;;;;;;2.50;2.50;;;;;;;;5077777;27;45438;-72
2021/10/05 10:18:58;;;;;;;;;12.00;9.00;;;;;;;;5076782;27;45330;-73
2021/10/05 10:21:33;;;;;;;;;54.50;42.00;;;;;;;;5077456;27;45416;-72
2021/10/05 10:24:07;;;;;;;;;1.25;1.25;;;;;;;;5058942;27;45590;-72
2021/10/05 10:26:33;;;;;;;;;16.25;13.00;;;;;;;;5058377;27;45514;-73
2021/10/05 10:28:59;;;;;;;;;6.25;3.50;;;;;;;;5079036;27;46923;-72
2021/10/05 10:31:27;;;;;;;;;2.75;1.00;;;;;;;;5077597;27;46397;-73
2021/10/05 10:33:53;;;;;;;;;0.00;0.00;;;;;;;;5077825;27;45414;-72
2021/10/05 10:36:47;;;;;;;;;1.00;1.00;;;;;;;;5075228;27;45549;-73
2021/10/05 10:39:14;;;;;;;;;3.00;3.00;;;;;;;;4995902;28;45338;-72
2021/10/05 10:41:42;;;;;;;;;3.50;1.00;;;;;;;;4992576;28;45570;-73
2021/10/05 10:44:11;;;;;;;;;1.00;1.00;;;;;;;;4993020;28;45619;-72
2021/10/05 10:46:38;;;;;;;;;1.00;1.00;;;;;;;;4995517;28;45946;-72
2021/10/05 10:49:11;;;;;;;;;0.50;0.50;;;;;;;;4993895;28;46595;-72
2021/10/05 10:51:39;;;;;;;;;0.00;0.00;;;;;;;;4995261;28;45388;-72
2021/10/05 10:54:15;;;;;;;;;0.00;0.00;;;;;;;;4995671;28;45510;-73
2021/10/05 10:56:41;;;;;;;;;3.00;1.25;;;;;;;;4976122;28;45563;-72
2021/10/05 10:59:08;;;;;;;;;3.25;1.75;;;;;;;;4993863;28;46070;-74
2021/10/05 11:01:34;;;;;;;;;1.00;1.00;;;;;;;;4995707;28;45476;-73
2021/10/05 11:04:07;;;;;;;;;1.00;1.00;;;;;;;;4994989;28;45406;-73
2021/10/05 11:06:32;;;;;;;;;0.00;0.00;;;;;;;;4995289;28;45523;-73
2021/10/05 11:08:58;;;;;;;;;1.00;1.00;;;;;;;;4994577;28;46099;-74
2021/10/05 11:11:37;;;;;;;;;0.50;0.50;;;;;;;;4991519;28;45626;-72
2021/10/05 11:14:06;;;;;;;;;1.00;0.50;;;;;;;;5007534;28;45434;-72
2021/10/05 11:16:33;;;;;;;;;0.25;0.00;;;;;;;;5066929;27;45476;-72
2021/10/05 11:19:16;;;;;;;;;2.00;1.00;;;;;;;;5076171;27;46371;-74
2021/10/05 11:21:42;;;;;;;;;0.50;0.50;;;;;;;;5076065;27;45380;-75
2021/10/05 11:24:08;;;;;;;;;4.00;3.00;;;;;;;;5075577;27;45347;-73
2021/10/05 11:26:35;;;;;;;;;0.00;0.00;;;;;;;;5073213;27;45317;-73
2021/10/05 11:29:02;;;;;;;;;0.00;0.00;;;;;;;;5077217;27;46149;-74
2021/10/05 11:31:28;;;;;;;;;2.00;0.00;;;;;;;;5075621;27;45513;-74
2021/10/05 11:34:02;;;;;;;;;0.33;0.00;;;;;;;;5077152;27;45391;-73
2021/10/05 11:36:27;;;;;;;;;3.00;2.33;;;;;;;;5075787;27;45302;-73
2021/10/05 11:38:54;;;;;;;;;0.00;0.00;;;;;;;;5072779;27;45430;-73
2021/10/05 11:41:20;;;;;;;;;1.00;1.00;;;;;;;;5072242;27;45372;-75
2021/10/05 11:43:46;;;;;;;;;1.00;0.00;;;;;;;;5077596;27;45373;-73
2021/10/05 11:46:14;;;;;;;;;1.00;1.00;;;;;;;;5076376;27;45301;-75
2021/10/05 11:48:50;;;;;;;;;1.00;1.00;;;;;;;;5076151;27;45283;-75
2021/10/05 11:51:16;;;;;;;;;3.00;2.00;;;;;;;;5083820;27;45342;-73
2021/10/05 11:53:42;;;;;;;;;2.00;0.00;;;;;;;;5071107;27;45412;-74
2021/10/05 11:56:09;;;;;;;;;0.00;0.00;;;;;;;;5075195;27;45472;-74
2021/10/05 11:58:47;;;;;;;;;0.00;0.00;;;;;;;;5076975;27;45357;-74
2021/10/05 12:01:16;;;;;;;;;0.33;0.00;;;;;;;;5077814;27;45410;-76
2021/10/05 12:03:43;;;;;;;;;0.00;0.00;;;;;;;;5079037;27;45386;-73
2021/10/05 12:06:08;;;;;;;;;0.67;0.67;;;;;;;;5078803;27;45587;-74
2021/10/05 12:08:43;;;;;;;;;0.67;0.67;;;;;;;;5056162;27;46827;-74
2021/10/05 12:11:08;;;;;;;;;0.00;0.00;;;;;;;;5077861;27;45481;-74
2021/10/05 12:13:33;;;;;;;;;0.00;0.00;;;;;;;;5080187;27;45473;-74
2021/10/05 12:15:58;;;;;;;;;0.33;0.33;;;;;;;;5079677;27;45445;-74
2021/10/05 12:18:23;;;;;;;;;1.00;1.00;;;;;;;;5078140;27;49221;-74
2021/10/05 12:21:03;;;;;;;;;1.00;1.00;;;;;;;;5077967;27;45481;-74
2021/10/05 12:23:28;;;;;;;;;1.00;1.00;;;;;;;;5059615;28;45324;-74
2021/10/05 12:25:53;;;;;;;;;0.00;0.00;;;;;;;;5081803;27;45364;-74
2021/10/05 12:28:18;;;;;;;;;1.00;0.00;;;;;;;;5079752;27;45440;-74
2021/10/05 12:30:44;;;;;;;;;0.00;0.00;;;;;;;;5078181;27;45434;-74
2021/10/05 12:33:10;;;;;;;;;0.33;0.00;;;;;;;;5077959;27;45371;-74
2021/10/05 12:35:37;;;;;;;;;0.00;0.00;;;;;;;;5074983;27;45517;-74
2021/10/05 12:38:06;;;;;;;;;1.33;1.00;;;;;;;;5079091;27;46145;-75
2021/10/05 12:40:58;;;;;;;;;8.00;8.00;;;;;;;;5080327;27;45350;-75
2021/10/05 12:43:35;;;;;;;;;2.00;1.00;;;;;;;;5074010;27;45289;-74
2021/10/05 12:46:01;;;;;;;;;0.33;0.00;;;;;;;;5076743;27;45402;-75
2021/10/05 12:48:34;;;;;;;;;0.33;0.33;;;;;;;;5078700;27;45391;-74
2021/10/05 12:50:59;;;;;;;;;0.00;0.00;;;;;;;;5078680;27;45435;-75
2021/10/05 12:53:24;;;;;;;;;2.33;2.00;;;;;;;;5075208;27;45374;-73
2021/10/05 12:55:50;;;;;;;;;2.33;1.67;;;;;;;;5081121;27;45335;-74
2021/10/05 12:58:16;;;;;;;;;0.00;0.00;;;;;;;;5078931;27;46279;-75
2021/10/05 13:00:42;;;;;;;;;1.33;0.00;;;;;;;;5079264;27;45407;-75
2021/10/05 13:03:08;;;;;;;;;0.00;0.00;;;;;;;;5078676;27;45297;-75
2021/10/05 13:05:34;;;;;;;;;0.00;0.00;;;;;;;;5074736;27;45312;-73
2021/10/05 13:07:59;;;;;;;;;3.00;0.33;;;;;;;;5080110;27;45371;-75
2021/10/05 13:10:24;;;;;;;;;0.00;0.00;;;;;;;;5079143;27;45203;-75
2021/10/05 13:12:50;;;;;;;;;0.00;0.00;;;;;;;;5076962;27;45430;-76
2021/10/05 13:15:15;;;;;;;;;2.00;1.00;;;;;;;;5078955;27;45288;-76
2021/10/05 13:17:41;;;;;;;;;0.00;0.00;;;;;;;;5075951;27;45713;-74
2021/10/05 13:20:09;;;;;;;;;0.00;0.00;;;;;;;;5078507;27;45353;-74
2021/10/05 13:22:34;;;;;;;;;0.00;0.00;;;;;;;;5079970;27;45397;-73
2021/10/05 13:25:00;;;;;;;;;0.67;0.00;;;;;;;;5078344;27;45453;-75
2021/10/05 13:27:25;;;;;;;;;0.00;0.00;;;;;;;;5077658;27;46175;-75
2021/10/05 13:29:51;;;;;;;;;1.00;1.00;;;;;;;;5076459;27;45468;-75
2021/10/05 13:32:16;;;;;;;;;0.00;0.00;;;;;;;;5075584;27;45354;-74
2021/10/05 13:34:41;;;;;;;;;0.33;0.00;;;;;;;;5080360;27;45426;-74
2021/10/05 13:37:06;;;;;;;;;1.00;0.00;;;;;;;;5077735;27;46157;-75
2021/10/05 13:39:32;;;;;;;;;1.67;0.67;;;;;;;;5077925;27;45334;-74
2021/10/05 13:41:57;;;;;;;;;0.00;0.00;;;;;;;;5077612;27;45561;-75
2021/10/05 13:44:22;;;;;;;;;1.67;0.67;;;;;;;;5074161;27;45367;-75
2021/10/05 13:46:48;;;;;;;;;0.00;0.00;;;;;;;;5078846;27;46426;-75
2021/10/05 13:49:13;;;;;;;;;0.67;0.00;;;;;;;;5076159;27;45531;-75
2021/10/05 13:51:39;;;;;;;;;0.67;0.67;;;;;;;;5077741;27;45644;-75
2021/10/05 13:54:04;;;;;;;;;1.67;0.00;;;;;;;;5073860;27;45122;-74
2021/10/05 13:56:29;;;;;;;;;0.00;0.00;;;;;;;;5089549;27;45276;-75
2021/10/05 13:58:56;;;;;;;;;0.00;0.00;;;;;;;;5079796;27;45474;-75
2021/10/05 14:01:22;;;;;;;;;1.00;1.00;;;;;;;;5078633;27;45362;-75
2021/10/05 14:03:47;;;;;;;;;1.67;0.00;;;;;;;;5078597;27;45279;-74
2021/10/05 14:06:13;;;;;;;;;0.33;0.00;;;;;;;;5078308;27;45503;-74
2021/10/05 14:08:38;;;;;;;;;1.00;1.00;;;;;;;;5074494;27;45469;-75
2021/10/05 14:11:03;;;;;;;;;0.00;0.00;;;;;;;;5078109;27;45318;-75
2021/10/05 14:13:28;;;;;;;;;0.00;0.00;;;;;;;;5077871;27;45614;-75
2021/10/05 14:15:54;;;;;;;;;0.00;0.00;;;;;;;;5076880;27;45354;-75
2021/10/05 14:18:19;;;;;;;;;0.00;0.00;;;;;;;;5077059;27;45344;-74
2021/10/05 14:20:47;;;;;;;;;0.67;0.00;;;;;;;;5075222;27;45481;-74
2021/10/05 14:23:13;;;;;;;;;0.33;0.33;;;;;;;;5074614;27;45398;-75
2021/10/05 14:25:38;;;;;;;;;2.00;0.00;;;;;;;;5079090;27;46860;-75
2021/10/05 14:28:03;;;;;;;;;0.33;0.00;;;;;;;;5075589;27;45500;-75
2021/10/05 14:30:28;;;;;;;;;1.00;1.00;;;;;;;;5075625;27;45296;-76
2021/10/05 14:32:53;;;;;;;;;0.67;0.33;;;;;;;;5075444;27;45468;-75
2021/10/05 14:35:19;;;;;;;;;0.00;0.00;;;;;;;;5073778;27;46021;-74
2021/10/05 14:37:44;;;;;;;;;1.67;0.00;;;;;;;;5079278;27;45421;-75
2021/10/05 14:40:09;;;;;;;;;0.33;0.33;;;;;;;;5077855;27;45256;-75